TUI461 EDDF-ESNQ
Flight info
| Callsign | TUI461 |
|---|---|
| Flight time | N/A |
| Altitude | 37000 |
| Route | MARUN2G MARUN Y150 TOLGI DCT KSD DCT VAGAS |
| Aircraft | B38M/M-SDE1FGHILORVWXY/HB1 |
Departure
| Time | N/A |
|---|---|
| Airport | Frankfurt Main Airport (EDDF) |
Arrival
| Time | 2026-04-26 01:22 |
|---|---|
| Airport | Kiruna Airport (ESNQ) |
| Time | Latitude | Longitude | Altitude | Speed | Heading |
|---|---|---|---|---|---|
| 2026-04-25 23:27 | 55.45637 | 11.15263 | 36925 ft | 431 kts | 8° |
| 2026-04-25 23:27 | 55.48535 | 11.16679 | 36914 ft | 432 kts | 8° |
| 2026-04-25 23:28 | 55.54325 | 11.19515 | 36917 ft | 432 kts | 8° |
| 2026-04-25 23:28 | 55.60123 | 11.22363 | 36903 ft | 432 kts | 8° |
| 2026-04-25 23:29 | 55.65926 | 11.25222 | 36900 ft | 433 kts | 8° |
| 2026-04-25 23:29 | 55.71734 | 11.28093 | 36911 ft | 433 kts | 8° |
| 2026-04-25 23:30 | 55.77532 | 11.30968 | 36897 ft | 433 kts | 8° |
| 2026-04-25 23:30 | 55.83333 | 11.33852 | 36895 ft | 432 kts | 8° |
| 2026-04-25 23:31 | 55.89121 | 11.36741 | 36880 ft | 432 kts | 8° |
| 2026-04-25 23:31 | 55.94877 | 11.39621 | 36877 ft | 432 kts | 8° |
| 2026-04-25 23:32 | 56.00667 | 11.42528 | 36865 ft | 432 kts | 8° |
| 2026-04-25 23:32 | 56.06464 | 11.45446 | 36908 ft | 433 kts | 7° |
| 2026-04-25 23:33 | 56.12262 | 11.48376 | 36856 ft | 432 kts | 7° |
| 2026-04-25 23:33 | 56.18057 | 11.51312 | 36855 ft | 433 kts | 7° |
| 2026-04-25 23:34 | 56.23849 | 11.54256 | 36850 ft | 433 kts | 7° |
| 2026-04-25 23:34 | 56.29649 | 11.57214 | 36847 ft | 432 kts | 7° |
| 2026-04-25 23:35 | 56.35408 | 11.60160 | 36839 ft | 433 kts | 8° |
| 2026-04-25 23:35 | 56.41209 | 11.63136 | 36830 ft | 433 kts | 8° |
| 2026-04-25 23:36 | 56.47011 | 11.66123 | 36829 ft | 433 kts | 8° |
| 2026-04-25 23:36 | 56.52824 | 11.69125 | 36818 ft | 433 kts | 8° |
| 2026-04-25 23:37 | 56.58624 | 11.72131 | 36839 ft | 434 kts | 8° |
| 2026-04-25 23:37 | 56.64434 | 11.75149 | 36812 ft | 434 kts | 8° |
| 2026-04-25 23:38 | 56.70253 | 11.78184 | 36810 ft | 434 kts | 8° |
| 2026-04-25 23:38 | 56.76067 | 11.81225 | 36802 ft | 434 kts | 8° |
| 2026-04-25 23:39 | 56.81833 | 11.84251 | 36802 ft | 434 kts | 8° |
| 2026-04-25 23:39 | 56.87634 | 11.87305 | 36790 ft | 432 kts | 8° |
| 2026-04-25 23:40 | 56.93408 | 11.90354 | 36785 ft | 432 kts | 8° |
| 2026-04-25 23:40 | 56.99183 | 11.93414 | 36781 ft | 432 kts | 8° |
| 2026-04-25 23:41 | 57.04961 | 11.96486 | 36776 ft | 432 kts | 8° |
| 2026-04-25 23:41 | 57.10697 | 11.99545 | 36809 ft | 432 kts | 9° |
| 2026-04-25 23:42 | 57.16469 | 12.02633 | 36768 ft | 431 kts | 9° |
| 2026-04-25 23:42 | 57.22246 | 12.05733 | 36768 ft | 432 kts | 9° |
| 2026-04-25 23:43 | 57.28025 | 12.08845 | 36760 ft | 432 kts | 9° |
| 2026-04-25 23:43 | 57.33759 | 12.11943 | 36763 ft | 432 kts | 9° |
| 2026-04-25 23:44 | 57.39564 | 12.15090 | 36747 ft | 437 kts | 10° |
| 2026-04-25 23:44 | 57.45424 | 12.18277 | 36743 ft | 438 kts | 10° |
| 2026-04-25 23:45 | 57.51272 | 12.21468 | 36746 ft | 438 kts | 10° |
| 2026-04-25 23:45 | 57.57124 | 12.24672 | 36736 ft | 438 kts | 10° |
| 2026-04-25 23:46 | 57.62934 | 12.27865 | 36760 ft | 440 kts | 11° |
| 2026-04-25 23:46 | 57.68837 | 12.31118 | 36729 ft | 443 kts | 11° |
| 2026-04-25 23:47 | 57.74749 | 12.34387 | 36722 ft | 443 kts | 11° |
| 2026-04-25 23:47 | 57.80661 | 12.37668 | 36720 ft | 443 kts | 11° |
| 2026-04-25 23:48 | 57.86569 | 12.40958 | 36719 ft | 443 kts | 11° |
| 2026-04-25 23:48 | 57.92452 | 12.44245 | 36715 ft | 444 kts | 11° |
| 2026-04-25 23:49 | 57.98374 | 12.47566 | 36712 ft | 444 kts | 11° |
| 2026-04-25 23:49 | 58.04306 | 12.50903 | 36709 ft | 444 kts | 11° |
| 2026-04-25 23:50 | 58.10235 | 12.54250 | 36713 ft | 444 kts | 11° |
| 2026-04-25 23:50 | 58.16161 | 12.57608 | 36712 ft | 445 kts | 11° |
| 2026-04-25 23:51 | 58.22090 | 12.60978 | 36717 ft | 445 kts | 11° |
| 2026-04-25 23:51 | 58.28017 | 12.64360 | 36716 ft | 445 kts | 11° |
| 2026-04-25 23:52 | 58.33945 | 12.67754 | 36716 ft | 445 kts | 11° |
| 2026-04-25 23:52 | 58.39835 | 12.71137 | 36738 ft | 445 kts | 11° |
| 2026-04-25 23:53 | 58.45790 | 12.74571 | 36709 ft | 449 kts | 12° |
| 2026-04-25 23:53 | 58.51786 | 12.78040 | 36721 ft | 450 kts | 12° |
| 2026-04-25 23:54 | 58.57784 | 12.81522 | 36716 ft | 450 kts | 12° |
| 2026-04-25 23:54 | 58.63788 | 12.85021 | 36708 ft | 450 kts | 12° |
| 2026-04-25 23:55 | 58.69788 | 12.88529 | 36741 ft | 451 kts | 12° |
| 2026-04-25 23:55 | 58.75784 | 12.92047 | 36694 ft | 450 kts | 12° |
| 2026-04-25 23:56 | 58.81767 | 12.95569 | 36696 ft | 450 kts | 12° |
| 2026-04-25 23:56 | 58.87761 | 12.99110 | 36692 ft | 450 kts | 12° |
| 2026-04-25 23:57 | 58.93721 | 13.02643 | 36690 ft | 450 kts | 12° |
| 2026-04-25 23:57 | 58.99707 | 13.06204 | 36688 ft | 448 kts | 12° |
| 2026-04-25 23:58 | 59.05663 | 13.09761 | 36691 ft | 448 kts | 12° |
| 2026-04-25 23:58 | 59.11624 | 13.13333 | 36684 ft | 448 kts | 12° |
| 2026-04-25 23:59 | 59.17578 | 13.16914 | 36688 ft | 448 kts | 12° |
| 2026-04-25 23:59 | 59.23536 | 13.20511 | 36722 ft | 448 kts | 12° |
| 2026-04-26 00:00 | 59.29456 | 13.24097 | 36692 ft | 448 kts | 12° |
| 2026-04-26 00:00 | 59.35457 | 13.27745 | 36690 ft | 449 kts | 12° |
| 2026-04-26 00:01 | 59.41383 | 13.31360 | 36693 ft | 449 kts | 12° |
| 2026-04-26 00:01 | 59.47339 | 13.35179 | 36691 ft | 450 kts | 13° |
| 2026-04-26 00:02 | 59.53293 | 13.39043 | 36692 ft | 450 kts | 13° |
| 2026-04-26 00:02 | 59.59255 | 13.42906 | 36689 ft | 451 kts | 13° |
| 2026-04-26 00:03 | 59.65180 | 13.46758 | 36687 ft | 451 kts | 13° |
| 2026-04-26 00:03 | 59.71139 | 13.50647 | 36678 ft | 451 kts | 13° |
| 2026-04-26 00:04 | 59.77112 | 13.54561 | 36715 ft | 451 kts | 14° |
| 2026-04-26 00:04 | 59.83081 | 13.58486 | 36683 ft | 452 kts | 14° |
| 2026-04-26 00:05 | 59.88046 | 13.61762 | 36687 ft | 452 kts | 14° |
| 2026-04-26 00:05 | 59.94016 | 13.65715 | 36693 ft | 452 kts | 14° |
| 2026-04-26 00:06 | 60.00964 | 13.70335 | 36691 ft | 452 kts | 14° |
| 2026-04-26 00:06 | 60.05928 | 13.73649 | 36720 ft | 452 kts | 14° |
| 2026-04-26 00:07 | 60.11909 | 13.77654 | 36688 ft | 452 kts | 14° |
| 2026-04-26 00:07 | 60.17893 | 13.81677 | 36683 ft | 453 kts | 14° |
| 2026-04-26 00:08 | 60.23866 | 13.85708 | 36680 ft | 453 kts | 14° |
| 2026-04-26 00:08 | 60.29839 | 13.89756 | 36676 ft | 453 kts | 14° |
| 2026-04-26 00:09 | 60.35783 | 13.93799 | 36678 ft | 455 kts | 14° |
| 2026-04-26 00:09 | 60.41786 | 13.97897 | 36677 ft | 456 kts | 14° |
| 2026-04-26 00:10 | 60.47793 | 14.02015 | 36679 ft | 456 kts | 14° |
| 2026-04-26 00:10 | 60.53797 | 14.06147 | 36678 ft | 455 kts | 14° |
| 2026-04-26 00:11 | 60.59802 | 14.10295 | 36718 ft | 456 kts | 14° |
| 2026-04-26 00:11 | 60.65820 | 14.14470 | 36679 ft | 457 kts | 14° |
| 2026-04-26 00:12 | 60.71852 | 14.18669 | 36676 ft | 457 kts | 14° |
| 2026-04-26 00:12 | 60.77837 | 14.22853 | 36671 ft | 457 kts | 14° |
| 2026-04-26 00:13 | 60.83860 | 14.27081 | 36669 ft | 457 kts | 14° |
| 2026-04-26 00:13 | 60.89884 | 14.31326 | 36663 ft | 457 kts | 14° |
| 2026-04-26 00:14 | 60.95903 | 14.35585 | 36662 ft | 457 kts | 14° |
| 2026-04-26 00:14 | 61.01922 | 14.39860 | 36673 ft | 457 kts | 14° |
| 2026-04-26 00:15 | 61.07952 | 14.44161 | 36671 ft | 457 kts | 15° |
| 2026-04-26 00:15 | 61.13967 | 14.48468 | 36673 ft | 457 kts | 15° |
| 2026-04-26 00:16 | 61.19948 | 14.52768 | 36664 ft | 458 kts | 15° |
| 2026-04-26 00:16 | 61.25976 | 14.57120 | 36670 ft | 459 kts | 15° |
| 2026-04-26 00:17 | 61.32007 | 14.61492 | 36667 ft | 459 kts | 15° |
| 2026-04-26 00:17 | 61.38039 | 14.65881 | 36666 ft | 459 kts | 15° |
| 2026-04-26 00:18 | 61.44071 | 14.70289 | 36695 ft | 459 kts | 15° |
| 2026-04-26 00:18 | 61.50101 | 14.74714 | 36673 ft | 459 kts | 15° |
| 2026-04-26 00:19 | 61.56105 | 14.79137 | 36670 ft | 460 kts | 15° |
| 2026-04-26 00:19 | 61.62138 | 14.83601 | 36671 ft | 460 kts | 15° |
| 2026-04-26 00:20 | 61.68172 | 14.88083 | 36672 ft | 460 kts | 15° |
| 2026-04-26 00:20 | 61.74204 | 14.92584 | 36695 ft | 460 kts | 15° |
| 2026-04-26 00:21 | 61.80232 | 14.97101 | 36677 ft | 459 kts | 16° |
| 2026-04-26 00:21 | 61.86264 | 15.01638 | 36675 ft | 459 kts | 16° |
| 2026-04-26 00:22 | 61.92289 | 15.06188 | 36671 ft | 459 kts | 16° |
| 2026-04-26 00:22 | 61.98276 | 15.10730 | 36675 ft | 459 kts | 16° |
| 2026-04-26 00:23 | 62.04293 | 15.15314 | 36690 ft | 459 kts | 16° |
| 2026-04-26 00:23 | 62.10314 | 15.19919 | 36682 ft | 459 kts | 16° |
| 2026-04-26 00:24 | 62.16337 | 15.24547 | 36676 ft | 459 kts | 16° |
| 2026-04-26 00:24 | 62.22346 | 15.29184 | 36682 ft | 459 kts | 16° |
| 2026-04-26 00:25 | 62.28326 | 15.33815 | 36683 ft | 459 kts | 16° |
| 2026-04-26 00:25 | 62.34345 | 15.38498 | 36688 ft | 460 kts | 17° |
| 2026-04-26 00:26 | 62.40374 | 15.43208 | 36689 ft | 461 kts | 17° |
| 2026-04-26 00:26 | 62.46405 | 15.47943 | 36689 ft | 461 kts | 17° |
| 2026-04-26 00:27 | 62.52437 | 15.52696 | 36678 ft | 461 kts | 17° |
| 2026-04-26 00:27 | 62.58461 | 15.57465 | 36708 ft | 461 kts | 17° |
| 2026-04-26 00:28 | 62.64496 | 15.62263 | 36677 ft | 461 kts | 17° |
| 2026-04-26 00:28 | 62.70481 | 15.67041 | 36684 ft | 461 kts | 17° |
| 2026-04-26 00:29 | 62.76500 | 15.71866 | 36693 ft | 461 kts | 17° |
| 2026-04-26 00:29 | 62.82533 | 15.76726 | 36685 ft | 461 kts | 17° |
| 2026-04-26 00:30 | 62.88552 | 15.81595 | 36691 ft | 461 kts | 17° |
| 2026-04-26 00:30 | 62.94586 | 15.86497 | 36681 ft | 462 kts | 17° |
| 2026-04-26 00:31 | 63.00568 | 15.91379 | 36676 ft | 462 kts | 17° |
| 2026-04-26 00:31 | 63.06587 | 15.96313 | 36679 ft | 462 kts | 17° |
| 2026-04-26 00:32 | 63.12606 | 16.01268 | 36681 ft | 462 kts | 17° |
| 2026-04-26 00:32 | 63.21656 | 16.08760 | 36680 ft | 463 kts | 18° |
| 2026-04-26 00:33 | 63.27689 | 16.13782 | 36678 ft | 463 kts | 18° |
| 2026-04-26 00:33 | 63.33717 | 16.18823 | 36679 ft | 463 kts | 18° |
| 2026-04-26 00:34 | 63.39721 | 16.23864 | 36682 ft | 465 kts | 18° |
| 2026-04-26 00:34 | 63.45785 | 16.28982 | 36690 ft | 466 kts | 18° |
| 2026-04-26 00:35 | 63.51851 | 16.34124 | 36677 ft | 465 kts | 18° |
| 2026-04-26 00:35 | 63.57902 | 16.39278 | 36679 ft | 465 kts | 18° |
| 2026-04-26 00:36 | 63.60158 | 16.41202 | 36674 ft | 465 kts | 18° |
| 2026-04-26 00:36 | 63.66216 | 16.46393 | 36677 ft | 465 kts | 18° |
| 2026-04-26 00:37 | 63.72267 | 16.51602 | 36673 ft | 466 kts | 18° |
| 2026-04-26 00:37 | 63.78281 | 16.56803 | 36676 ft | 465 kts | 18° |
| 2026-04-26 00:38 | 63.84329 | 16.62056 | 36677 ft | 465 kts | 18° |
| 2026-04-26 00:38 | 63.90382 | 16.67338 | 36678 ft | 465 kts | 18° |
| 2026-04-26 00:39 | 63.96424 | 16.72635 | 36681 ft | 465 kts | 18° |
| 2026-04-26 00:39 | 64.02460 | 16.77953 | 36698 ft | 465 kts | 18° |
| 2026-04-26 00:40 | 64.08496 | 16.83293 | 36681 ft | 464 kts | 18° |
| 2026-04-26 00:40 | 64.14486 | 16.88620 | 36676 ft | 464 kts | 18° |
| 2026-04-26 00:41 | 64.20512 | 16.94004 | 36677 ft | 464 kts | 18° |
| 2026-04-26 00:41 | 64.26536 | 16.99407 | 36678 ft | 464 kts | 18° |
| 2026-04-26 00:42 | 64.32566 | 17.04843 | 36699 ft | 464 kts | 18° |
| 2026-04-26 00:42 | 64.38581 | 17.10293 | 36680 ft | 464 kts | 19° |
| 2026-04-26 00:43 | 64.44549 | 17.15725 | 36677 ft | 464 kts | 18° |
| 2026-04-26 00:43 | 64.50565 | 17.21225 | 36679 ft | 464 kts | 19° |
| 2026-04-26 00:44 | 64.56578 | 17.26752 | 36679 ft | 464 kts | 19° |
| 2026-04-26 00:44 | 64.62583 | 17.32296 | 36686 ft | 464 kts | 19° |
| 2026-04-26 00:45 | 64.67574 | 17.36922 | 36681 ft | 464 kts | 19° |
| 2026-04-26 00:45 | 64.74588 | 17.43456 | 36676 ft | 464 kts | 19° |
| 2026-04-26 00:46 | 64.80587 | 17.49073 | 36675 ft | 464 kts | 19° |
| 2026-04-26 00:46 | 64.86543 | 17.54680 | 36678 ft | 464 kts | 19° |
| 2026-04-26 00:47 | 64.92536 | 17.60347 | 36684 ft | 464 kts | 19° |
| 2026-04-26 00:47 | 64.98520 | 17.66032 | 36674 ft | 464 kts | 19° |
| 2026-04-26 00:48 | 65.04512 | 17.71752 | 36672 ft | 464 kts | 19° |
| 2026-04-26 00:48 | 65.10499 | 17.77495 | 36673 ft | 464 kts | 19° |
| 2026-04-26 00:49 | 65.16483 | 17.83264 | 36672 ft | 464 kts | 19° |
| 2026-04-26 00:49 | 65.22466 | 17.89060 | 36673 ft | 464 kts | 20° |
| 2026-04-26 00:50 | 65.28434 | 17.94870 | 36672 ft | 463 kts | 20° |
| 2026-04-26 00:50 | 65.34404 | 18.00711 | 36665 ft | 463 kts | 20° |
| 2026-04-26 00:51 | 65.40373 | 18.06579 | 36670 ft | 463 kts | 20° |
| 2026-04-26 00:51 | 65.46301 | 18.12436 | 36660 ft | 463 kts | 20° |
| 2026-04-26 00:52 | 65.52259 | 18.18352 | 36664 ft | 463 kts | 20° |
| 2026-04-26 00:52 | 65.58221 | 18.24298 | 36667 ft | 463 kts | 20° |
| 2026-04-26 00:53 | 65.63170 | 18.29259 | 36660 ft | 463 kts | 20° |
| 2026-04-26 00:53 | 65.70082 | 18.36223 | 36662 ft | 463 kts | 20° |
| 2026-04-26 00:54 | 65.75064 | 18.41268 | 36655 ft | 463 kts | 20° |
| 2026-04-26 00:54 | 65.81974 | 18.48298 | 36656 ft | 463 kts | 20° |
| 2026-04-26 00:55 | 65.86953 | 18.53388 | 36654 ft | 463 kts | 20° |
| 2026-04-26 00:55 | 65.92894 | 18.59491 | 36647 ft | 463 kts | 20° |
| 2026-04-26 00:56 | 65.98828 | 18.65619 | 36649 ft | 463 kts | 20° |
| 2026-04-26 00:56 | 66.04735 | 18.71749 | 36648 ft | 463 kts | 20° |
| 2026-04-26 00:57 | 66.10673 | 18.77943 | 36653 ft | 463 kts | 21° |
| 2026-04-26 00:57 | 66.16612 | 18.84169 | 36650 ft | 463 kts | 21° |
| 2026-04-26 00:58 | 66.22546 | 18.90422 | 36646 ft | 463 kts | 21° |
| 2026-04-26 00:58 | 66.28474 | 18.96700 | 36645 ft | 463 kts | 21° |
| 2026-04-26 00:59 | 66.34404 | 19.03013 | 36645 ft | 463 kts | 21° |
| 2026-04-26 00:59 | 66.40294 | 19.09317 | 36656 ft | 463 kts | 21° |
| 2026-04-26 01:00 | 66.46196 | 19.15664 | 36079 ft | 458 kts | 21° |
| 2026-04-26 01:00 | 66.49139 | 19.18841 | 35233 ft | 463 kts | 21° |
| 2026-04-26 01:00 | 66.52119 | 19.22067 | 34364 ft | 468 kts | 21° |
| 2026-04-26 01:01 | 66.55102 | 19.25305 | 33799 ft | 465 kts | 21° |
| 2026-04-26 01:01 | 66.58076 | 19.28543 | 32929 ft | 467 kts | 21° |
| 2026-04-26 01:01 | 66.61028 | 19.31761 | 32163 ft | 466 kts | 21° |
| 2026-04-26 01:01 | 66.63995 | 19.35004 | 31232 ft | 467 kts | 21° |
| 2026-04-26 01:02 | 66.66973 | 19.38267 | 30595 ft | 464 kts | 21° |
| 2026-04-26 01:02 | 66.69950 | 19.41537 | 29601 ft | 467 kts | 21° |
| 2026-04-26 01:02 | 66.72909 | 19.44794 | 28536 ft | 466 kts | 21° |
| 2026-04-26 01:02 | 66.75897 | 19.48093 | 27609 ft | 465 kts | 21° |
| 2026-04-26 01:03 | 66.78875 | 19.51388 | 26370 ft | 470 kts | 21° |
| 2026-04-26 01:03 | 66.81867 | 19.54711 | 25548 ft | 467 kts | 21° |
| 2026-04-26 01:03 | 66.84828 | 19.58005 | 24872 ft | 461 kts | 21° |
| 2026-04-26 01:03 | 66.87758 | 19.61276 | 24149 ft | 456 kts | 21° |
| 2026-04-26 01:04 | 66.90641 | 19.64499 | 23433 ft | 450 kts | 21° |
| 2026-04-26 01:04 | 66.93463 | 19.67664 | 22640 ft | 435 kts | 21° |
| 2026-04-26 01:04 | 66.96185 | 19.70724 | 21923 ft | 419 kts | 21° |
| 2026-04-26 01:04 | 66.98804 | 19.73676 | 21301 ft | 405 kts | 21° |
| 2026-04-26 01:05 | 67.01370 | 19.76574 | 20638 ft | 403 kts | 21° |
| 2026-04-26 01:05 | 67.03927 | 19.79469 | 19995 ft | 401 kts | 21° |
| 2026-04-26 01:05 | 67.06473 | 19.82356 | 19365 ft | 400 kts | 21° |
| 2026-04-26 01:05 | 67.09010 | 19.85241 | 18742 ft | 398 kts | 21° |
| 2026-04-26 01:06 | 67.11505 | 19.88084 | 18137 ft | 396 kts | 21° |
| 2026-04-26 01:06 | 67.14017 | 19.90953 | 17455 ft | 394 kts | 21° |
| 2026-04-26 01:06 | 67.16508 | 19.93805 | 16806 ft | 390 kts | 22° |
| 2026-04-26 01:06 | 67.18973 | 19.96633 | 16205 ft | 386 kts | 22° |
| 2026-04-26 01:07 | 67.21416 | 19.99442 | 15600 ft | 382 kts | 22° |
| 2026-04-26 01:07 | 67.23830 | 20.02224 | 15035 ft | 378 kts | 22° |
| 2026-04-26 01:07 | 67.26221 | 20.04985 | 14457 ft | 374 kts | 22° |
| 2026-04-26 01:07 | 67.28585 | 20.07722 | 13892 ft | 370 kts | 23° |
| 2026-04-26 01:08 | 67.30935 | 20.10446 | 13311 ft | 367 kts | 23° |
| 2026-04-26 01:08 | 67.33255 | 20.13143 | 12697 ft | 364 kts | 23° |
| 2026-04-26 01:08 | 67.35526 | 20.15767 | 12089 ft | 361 kts | 22° |
| 2026-04-26 01:08 | 67.37823 | 20.18372 | 11554 ft | 357 kts | 22° |
| 2026-04-26 01:09 | 67.40066 | 20.20897 | 11354 ft | 345 kts | 22° |
| 2026-04-26 01:09 | 67.42210 | 20.23303 | 11182 ft | 324 kts | 22° |
| 2026-04-26 01:09 | 67.44213 | 20.25550 | 11021 ft | 304 kts | 22° |
| 2026-04-26 01:09 | 67.46126 | 20.27698 | 10861 ft | 295 kts | 22° |
| 2026-04-26 01:10 | 67.47987 | 20.29790 | 10676 ft | 287 kts | 22° |
| 2026-04-26 01:10 | 67.49777 | 20.31806 | 10514 ft | 272 kts | 22° |
| 2026-04-26 01:10 | 67.51462 | 20.33707 | 10366 ft | 255 kts | 22° |
| 2026-04-26 01:10 | 67.53035 | 20.35485 | 10232 ft | 239 kts | 21° |
| 2026-04-26 01:11 | 67.54515 | 20.37159 | 10095 ft | 226 kts | 21° |
| 2026-04-26 01:11 | 67.55950 | 20.38783 | 10000 ft | 224 kts | 21° |
| 2026-04-26 01:11 | 67.57376 | 20.40401 | 9888 ft | 223 kts | 21° |
| 2026-04-26 01:11 | 67.58800 | 20.42017 | 9764 ft | 223 kts | 21° |
| 2026-04-26 01:12 | 67.60215 | 20.43626 | 9648 ft | 225 kts | 21° |
| 2026-04-26 01:12 | 67.61676 | 20.45289 | 9428 ft | 226 kts | 21° |
| 2026-04-26 01:12 | 67.63122 | 20.46939 | 9123 ft | 227 kts | 21° |
| 2026-04-26 01:12 | 67.64557 | 20.48578 | 8835 ft | 226 kts | 21° |
| 2026-04-26 01:13 | 67.65996 | 20.50223 | 8547 ft | 225 kts | 21° |
| 2026-04-26 01:13 | 67.67435 | 20.51869 | 8278 ft | 225 kts | 21° |
| 2026-04-26 01:13 | 67.68864 | 20.53509 | 8033 ft | 224 kts | 21° |
| 2026-04-26 01:13 | 67.70291 | 20.55147 | 7769 ft | 223 kts | 21° |
| 2026-04-26 01:14 | 67.71713 | 20.56781 | 7518 ft | 222 kts | 21° |
| 2026-04-26 01:14 | 67.73129 | 20.58411 | 7361 ft | 221 kts | 21° |
| 2026-04-26 01:14 | 67.74542 | 20.60039 | 7136 ft | 221 kts | 21° |
| 2026-04-26 01:14 | 67.75952 | 20.61665 | 6852 ft | 221 kts | 21° |
| 2026-04-26 01:15 | 67.77360 | 20.63292 | 6575 ft | 220 kts | 21° |
| 2026-04-26 01:15 | 67.78740 | 20.64882 | 6303 ft | 218 kts | 20° |
| 2026-04-26 01:15 | 67.80179 | 20.65982 | 6059 ft | 215 kts | 10° |
| 2026-04-26 01:15 | 67.81638 | 20.66873 | 5842 ft | 215 kts | 11° |
| 2026-04-26 01:16 | 67.83087 | 20.67792 | 5705 ft | 214 kts | 11° |
| 2026-04-26 01:16 | 67.84527 | 20.68725 | 5615 ft | 213 kts | 12° |
| 2026-04-26 01:16 | 67.85973 | 20.69677 | 5569 ft | 214 kts | 12° |
| 2026-04-26 01:16 | 67.87415 | 20.70640 | 5496 ft | 214 kts | 12° |
| 2026-04-26 01:17 | 67.88855 | 20.71608 | 5371 ft | 213 kts | 12° |
| 2026-04-26 01:17 | 67.90292 | 20.72582 | 5262 ft | 212 kts | 11° |
| 2026-04-26 01:17 | 67.91705 | 20.73212 | 5102 ft | 200 kts | 352° |
| 2026-04-26 01:17 | 67.92960 | 20.71977 | 4930 ft | 189 kts | 322° |
| 2026-04-26 01:18 | 67.93771 | 20.69385 | 4779 ft | 181 kts | 299° |
| 2026-04-26 01:18 | 67.94323 | 20.66370 | 4721 ft | 181 kts | 297° |
| 2026-04-26 01:18 | 67.94847 | 20.63371 | 4648 ft | 181 kts | 296° |
| 2026-04-26 01:18 | 67.95203 | 20.60173 | 4444 ft | 185 kts | 273° |
| 2026-04-26 01:19 | 67.94829 | 20.56873 | 4144 ft | 193 kts | 240° |
| 2026-04-26 01:19 | 67.93899 | 20.54304 | 3873 ft | 191 kts | 224° |
| 2026-04-26 01:19 | 67.92837 | 20.52328 | 3581 ft | 183 kts | 219° |
| 2026-04-26 01:19 | 67.91787 | 20.50510 | 3517 ft | 179 kts | 219° |
| 2026-04-26 01:20 | 67.90743 | 20.48678 | 3316 ft | 179 kts | 217° |
| 2026-04-26 01:20 | 67.89707 | 20.46858 | 3098 ft | 178 kts | 218° |
| 2026-04-26 01:20 | 67.88681 | 20.45053 | 2857 ft | 175 kts | 219° |
| 2026-04-26 01:20 | 67.87709 | 20.43348 | 2589 ft | 162 kts | 219° |
| 2026-04-26 01:21 | 67.86783 | 20.41724 | 2328 ft | 158 kts | 219° |
| 2026-04-26 01:21 | 67.85876 | 20.40135 | 2084 ft | 156 kts | 219° |
| 2026-04-26 01:21 | 67.84990 | 20.38591 | 1859 ft | 153 kts | 217° |
| 2026-04-26 01:21 | 67.84081 | 20.37055 | 1679 ft | 155 kts | 219° |
| 2026-04-26 01:22 | 67.83208 | 20.35468 | 1564 ft | 148 kts | 218° |
| 2026-04-26 01:22 | 67.82423 | 20.34072 | 1467 ft | 108 kts | 215° |
| 2026-04-26 01:22 | 67.81947 | 20.33258 | 1476 ft | 60 kts | 213° |
| 2026-04-26 01:22 | 67.81711 | 20.32837 | 1498 ft | 31 kts | 215° |
| 2026-04-26 01:23 | 67.81543 | 20.32519 | 1506 ft | 29 kts | 216° |
| 2026-04-26 01:23 | 67.81411 | 20.32243 | 1510 ft | 23 kts | 226° |
| 2026-04-26 01:23 | 67.81323 | 20.32047 | 1514 ft | 10 kts | 175° |
| 2026-04-26 01:23 | 67.81309 | 20.32127 | 1515 ft | 5 kts | 56° |
| 2026-04-26 01:24 | 67.81362 | 20.32222 | 1513 ft | 13 kts | 33° |
| 2026-04-26 01:24 | 67.81455 | 20.32390 | 1509 ft | 19 kts | 34° |
| 2026-04-26 01:24 | 67.81576 | 20.32603 | 1504 ft | 23 kts | 33° |
| 2026-04-26 01:24 | 67.81718 | 20.32849 | 1498 ft | 24 kts | 33° |
| 2026-04-26 01:25 | 67.81839 | 20.33060 | 1485 ft | 11 kts | 32° |
| 2026-04-26 01:25 | 67.81888 | 20.33141 | 1479 ft | 10 kts | 34° |
| 2026-04-26 01:25 | 67.81958 | 20.33267 | 1477 ft | 12 kts | 34° |
| 2026-04-26 01:25 | 67.82045 | 20.33319 | 1477 ft | 16 kts | 332° |
| 2026-04-26 01:26 | 67.82119 | 20.33106 | 1477 ft | 16 kts | 331° |
| 2026-04-26 01:26 | 67.82231 | 20.33200 | 1467 ft | 20 kts | 34° |
| 2026-04-26 01:26 | 67.82337 | 20.33387 | 1461 ft | 17 kts | 33° |
| 2026-04-26 01:26 | 67.82427 | 20.33544 | 1464 ft | 13 kts | 34° |
| 2026-04-26 01:27 | 67.82501 | 20.33552 | 1465 ft | 7 kts | 324° |
| 2026-04-26 01:27 | 67.82506 | 20.33544 | 1465 ft | 0 kts | 323° |